Santa Rosa, CA (95405)

6:10 PM PDT on September 30, 2014 (GMT -0700)
Annadel Heights | Change Station
CLOSE
Current Station
Personal Weather Station
Location: Santa Rosa, CA
Elevation: 340 ft
Nearby Weather Stations

Elev 340 ft 38.43 °N, 122.66 °W | Updated 18 seconds ago

Clear
Clear
74.5 °F
Feels Like 77 °F
N
1.1
Wind Variable Wind from South
Gusts 2.9 mph

Today
High -- | Low -- °F
--% Chance of Precip.
Yesterday
High -- | Low -- °F
Precip. -- in
7:05 AM 6:54 PM
Waxing Crescent, 42% visible
Pressure 29.81 in
Visibility 10.0 miles
Clouds Few 5000 ft
Heat Index 77 °F
Dew Point 56 °F
Humidity 52%
Rainfall 0.00 in
Snow Depth 0 in , 1 in , 0 in
UV 1 out of 12
Pollen 2.80 out of 12
Air Quality Not available.
Flu Activity Not available.
METAR KSTS 010053Z 22004KT 10SM FEW050 26/10 A2982 RMK AO2 SLP092 T02610100

More Conditions Fewer Conditions

Pressure 29.81 in
Visibility 10.0 miles
Clouds Few 5000 ft
Heat Index 77 °F
Dew Point 56 °F
Humidity 52%
Rainfall 0.00 in
Snow Depth 0 in , 1 in , 0 in
UV 1 out of 12
Pollen 2.80 out of 12
Air Quality Not available.
Flu Activity Not available.
METAR KSTS 010053Z 22004KT 10SM FEW050 26/10 A2982 RMK AO2 SLP092 T02610100

More Conditions Fewer Conditions

10-Day Weather Forecast

Almanac

Astronomy

Sep. 30, 2014 Rise Set
Actual Time 7:05 AM PDT 6:54 PM PDT
Civil Twilight 6:39 AM PDT 7:21 PM PDT
Nautical Twilight 6:08 AM PDT 7:51 PM PDT
Astronomical Twilight 5:37 AM PDT 8:22 PM PDT
Moon 1:15 PM PDT (9/30) 11:33 PM PDT (9/30)
Length of Visible Light 12h 42m
Length of Day
11h 49m
Tomorrow will be 2m 27s shorter.
Waxing Crescent, 42% of the Moon is Illuminated
Today
Waxing Crescent
Oct 1
First Quarter
Oct 8
Full
Oct 15
Last Quarter
Oct 23
New

Today's Extremes

State Highs State Lows

Community

WunderPhotos

Upload Photos

1,757,815 photos uploaded!

Nearby

Air Quality

  Air Quality AQ Index Pollutant
Tuesday Good
PM2.5
Wednesday Good
PM2.5
Thursday Moderate
PM2.5
Friday Moderate
PM2.5
Saturday Moderate
PM2.5
Sunday Moderate
PM2.5

Snow Depth

Station Depth Elevation
Adin Mountain 0 in 6200 ft
CSS Lab 1 in 6900 ft
Rubicon #2 0 in 7500 ft
Summit Meadow 0 in 9122 ft
Leavitt Lake 0 in 9400 ft

Earthquake Activity

City Distance Mag. Time & Date
East Foothills, California 82 miles 2.6 3:34 PM PDT
2014-09-30
South Dos Palos, California 160 miles 2.7 3:08 PM PDT
2014-09-30
South Dos Palos, California 159 miles 2.5 9:18 PM PDT
2014-09-29
American Canyon, California 26 miles 2.5 12:17 AM PDT
2014-09-29
Minimum magnitude displayed is 2.5.

Coastal Water Temperatures

Place Temperature
Point Reyes, CA 61.0 °F
Arena Cove, CA 57.0 °F
San Francisco, CA 64.0 °F
Richmond, CA 68.0 °F

Nearby Weather Stations